sensor_id;sensor_type;location;lat;lon;timestamp;pressure;altitude;pressure_sealevel;temperature;humidity
18765;BME280;9511;54.242;12.448;2023-04-24T03:03:45;99896.22;;;8.97;100.00
18765;BME280;9511;54.242;12.448;2023-04-24T03:06:12;99894.47;;;8.97;100.00
18765;BME280;9511;54.242;12.448;2023-04-24T03:08:40;99893.69;;;9.01;100.00
18765;BME280;9511;54.242;12.448;2023-04-24T03:11:07;99888.34;;;9.00;100.00
18765;BME280;9511;54.242;12.448;2023-04-24T03:13:35;99889.22;;;8.99;100.00
18765;BME280;9511;54.242;12.448;2023-04-24T03:16:02;99890.94;;;8.95;100.00
18765;BME280;9511;54.242;12.448;2023-04-24T03:18:29;99881.34;;;9.00;100.00
18765;BME280;9511;54.242;12.448;2023-04-24T03:20:58;99890.19;;;9.02;100.00
18765;BME280;9511;54.242;12.448;2023-04-24T03:23:26;99876.09;;;9.02;100.00
18765;BME280;9511;54.242;12.448;2023-04-24T03:25:53;99881.47;;;9.07;100.00
18765;BME280;9511;54.242;12.448;2023-04-24T03:28:21;99898.09;;;9.04;100.00
18765;BME280;9511;54.242;12.448;2023-04-24T03:30:54;99904.38;;;9.11;100.00
18765;BME280;9511;54.242;12.448;2023-04-24T03:33:23;99904.34;;;9.09;100.00
18765;BME280;9511;54.242;12.448;2023-04-24T03:36:01;99905.31;;;9.13;100.00
18765;BME280;9511;54.242;12.448;2023-04-24T03:38:36;99913.25;;;9.14;100.00
18765;BME280;9511;54.242;12.448;2023-04-24T03:41:21;99908.78;;;9.12;100.00
18765;BME280;9511;54.242;12.448;2023-04-24T03:43:53;99906.09;;;9.09;100.00
18765;BME280;9511;54.242;12.448;2023-04-24T03:46:20;99915.88;;;9.14;100.00
18765;BME280;9511;54.242;12.448;2023-04-24T03:48:53;99915.00;;;9.14;100.00
18765;BME280;9511;54.242;12.448;2023-04-24T03:51:27;99913.25;;;9.14;100.00
18765;BME280;9511;54.242;12.448;2023-04-24T03:54:01;99917.63;;;9.12;100.00
18765;BME280;9511;54.242;12.448;2023-04-24T03:56:31;99916.75;;;9.15;100.00
18765;BME280;9511;54.242;12.448;2023-04-24T03:58:58;99920.31;;;9.17;100.00
18765;BME280;9511;54.242;12.448;2023-04-24T04:01:26;99916.75;;;9.15;100.00
18765;BME280;9511;54.242;12.448;2023-04-24T04:04:09;99913.25;;;9.14;100.00
18765;BME280;9511;54.242;12.448;2023-04-24T04:06:39;99914.97;;;9.12;100.00
18765;BME280;9511;54.242;12.448;2023-04-24T04:09:06;99908.75;;;9.10;100.00
18765;BME280;9511;54.242;12.448;2023-04-24T04:11:35;99908.81;;;9.13;100.00
18765;BME280;9511;54.242;12.448;2023-04-24T04:14:03;99915.00;;;9.15;100.00
18765;BME280;9511;54.242;12.448;2023-04-24T04:16:32;99923.00;;;9.18;100.00
18765;BME280;9511;54.242;12.448;2023-04-24T04:19:04;99917.72;;;9.18;100.00
18765;BME280;9511;54.242;12.448;2023-04-24T04:21:32;99921.25;;;9.20;100.00
18765;BME280;9511;54.242;12.448;2023-04-24T04:24:24;99923.03;;;9.21;100.00
18765;BME280;9511;54.242;12.448;2023-04-24T04:26:52;99914.28;;;9.24;100.00
18765;BME280;9511;54.242;12.448;2023-04-24T04:29:27;99916.94;;;9.25;100.00
18765;BME280;9511;54.242;12.448;2023-04-24T04:31:55;99905.50;;;9.23;100.00
18765;BME280;9511;54.242;12.448;2023-04-24T04:34:23;99903.69;;;9.22;100.00
18765;BME280;9511;54.242;12.448;2023-04-24T04:36:51;99911.69;;;9.28;100.00
18765;BME280;9511;54.242;12.448;2023-04-24T04:39:38;99914.44;;;9.33;100.00
18765;BME280;9511;54.242;12.448;2023-04-24T04:42:10;99921.47;;;9.32;100.00
18765;BME280;9511;54.242;12.448;2023-04-24T04:44:43;99918.78;;;9.29;100.00
18765;BME280;9511;54.242;12.448;2023-04-24T04:47:15;99913.44;;;9.26;100.00
18765;BME280;9511;54.242;12.448;2023-04-24T04:49:43;99913.53;;;9.31;100.00
18765;BME280;9511;54.242;12.448;2023-04-24T04:52:19;99917.06;;;9.35;100.00
18765;BME280;9511;54.242;12.448;2023-04-24T04:54:54;99928.56;;;9.37;100.00
18765;BME280;9511;54.242;12.448;2023-04-24T04:57:26;99926.81;;;9.37;100.00
18765;BME280;9511;54.242;12.448;2023-04-24T04:59:53;99925.16;;;9.42;100.00
18765;BME280;9511;54.242;12.448;2023-04-24T05:02:34;99920.66;;;9.38;100.00
18765;BME280;9511;54.242;12.448;2023-04-24T05:05:02;99921.56;;;9.39;100.00
18765;BME280;9511;54.242;12.448;2023-04-24T05:07:29;99926.81;;;9.36;100.00
18765;BME280;9511;54.242;12.448;2023-04-24T05:09:58;99925.16;;;9.42;100.00
18765;BME280;9511;54.242;12.448;2023-04-24T05:12:25;99912.78;;;9.40;100.00
18765;BME280;9511;54.242;12.448;2023-04-24T05:14:53;99916.38;;;9.45;100.00
18765;BME280;9511;54.242;12.448;2023-04-24T05:17:21;99927.09;;;9.54;100.00
18765;BME280;9511;54.242;12.448;2023-04-24T05:19:49;99923.66;;;9.58;100.00
18765;BME280;9511;54.242;12.448;2023-04-24T05:22:17;99919.28;;;9.62;100.00
18765;BME280;9511;54.242;12.448;2023-04-24T05:24:50;99913.13;;;9.61;100.00
18765;BME280;9511;54.242;12.448;2023-04-24T05:27:33;99918.41;;;9.61;100.00
18765;BME280;9511;54.242;12.448;2023-04-24T05:30:03;99904.38;;;9.65;100.00
18765;BME280;9511;54.242;12.448;2023-04-24T05:32:30;99902.63;;;9.67;100.00
18765;BME280;9511;54.242;12.448;2023-04-24T05:34:58;99903.63;;;9.74;100.00
18765;BME280;9511;54.242;12.448;2023-04-24T05:37:25;99901.13;;;9.84;100.00
18765;BME280;9511;54.242;12.448;2023-04-24T05:39:53;99906.41;;;9.83;100.00
18765;BME280;9511;54.242;12.448;2023-04-24T05:42:20;99909.84;;;9.79;100.00
18765;BME280;9511;54.242;12.448;2023-04-24T05:44:49;99900.22;;;9.81;100.00
18765;BME280;9511;54.242;12.448;2023-04-24T05:47:16;99894.09;;;9.85;100.00
18765;BME280;9511;54.242;12.448;2023-04-24T05:49:44;99899.47;;;9.91;100.00
18765;BME280;9511;54.242;12.448;2023-04-24T05:52:11;99903.13;;;10.01;100.00
18765;BME280;9511;54.242;12.448;2023-04-24T05:54:40;99910.22;;;10.05;100.00
18765;BME280;9511;54.242;12.448;2023-04-24T05:57:08;99910.41;;;10.19;100.00
18765;BME280;9511;54.242;12.448;2023-04-24T05:59:53;99912.41;;;10.33;100.00
18765;BME280;9511;54.242;12.448;2023-04-24T06:02:22;99911.66;;;10.45;100.00
18765;BME280;9511;54.242;12.448;2023-04-24T06:04:49;99910.78;;;10.48;100.00
18765;BME280;9511;54.242;12.448;2023-04-24T06:07:17;99916.06;;;10.48;100.00
18765;BME280;9511;54.242;12.448;2023-04-24T06:09:45;99914.44;;;10.59;100.00
18765;BME280;9511;54.242;12.448;2023-04-24T06:12:13;99922.47;;;10.67;100.00
18765;BME280;9511;54.242;12.448;2023-04-24T06:14:56;99925.22;;;10.74;100.00
18765;BME280;9511;54.242;12.448;2023-04-24T06:17:39;99926.09;;;10.76;100.00
18765;BME280;9511;54.242;12.448;2023-04-24T06:20:07;99927.03;;;10.81;100.00
18765;BME280;9511;54.242;12.448;2023-04-24T06:22:36;99928.03;;;10.91;100.00
18765;BME280;9511;54.242;12.448;2023-04-24T06:25:06;99916.69;;;11.01;100.00
18765;BME280;9511;54.242;12.448;2023-04-24T06:27:34;99914.16;;;11.16;100.00
18765;BME280;9511;54.242;12.448;2023-04-24T06:30:03;99926.59;;;11.28;100.00
18765;BME280;9511;54.242;12.448;2023-04-24T06:32:31;99926.84;;;11.56;100.00
18765;BME280;9511;54.242;12.448;2023-04-24T06:34:59;99925.16;;;11.68;100.00
18765;BME280;9511;54.242;12.448;2023-04-24T06:37:27;99921.81;;;11.92;100.00
18765;BME280;9511;54.242;12.448;2023-04-24T06:39:54;99921.09;;;12.21;100.00
18765;BME280;9511;54.242;12.448;2023-04-24T06:42:22;99928.25;;;12.34;100.00
18765;BME280;9511;54.242;12.448;2023-04-24T06:44:50;99916.78;;;12.49;100.00
18765;BME280;9511;54.242;12.448;2023-04-24T06:47:19;99917.72;;;12.59;100.00
18765;BME280;9511;54.242;12.448;2023-04-24T06:49:46;99923.09;;;12.77;98.83
18765;BME280;9511;54.242;12.448;2023-04-24T06:52:13;99908.03;;;12.68;96.09
18765;BME280;9511;54.242;12.448;2023-04-24T06:54:41;99924.84;;;12.73;94.07
18765;BME280;9511;54.242;12.448;2023-04-24T06:57:08;99911.56;;;12.64;92.84
18765;BME280;9511;54.242;12.448;2023-04-24T06:59:36;99919.50;;;12.66;92.60
18765;BME280;9511;54.242;12.448;2023-04-24T07:02:04;99912.47;;;12.68;90.65
18765;BME280;9511;54.242;12.448;2023-04-24T07:04:33;99916.91;;;12.80;90.14
18765;BME280;9511;54.242;12.448;2023-04-24T07:07:00;99916.06;;;12.97;89.37
18765;BME280;9511;54.242;12.448;2023-04-24T07:09:28;99916.06;;;13.13;88.37
18765;BME280;9511;54.242;12.448;2023-04-24T07:11:55;99920.47;;;12.94;87.05
18765;BME280;9511;54.242;12.448;2023-04-24T07:14:23;99922.28;;;13.09;85.62
18765;BME280;9511;54.242;12.448;2023-04-24T07:16:50;99913.41;;;13.17;84.41
18765;BME280;9511;54.242;12.448;2023-04-24T07:19:18;99912.59;;;13.32;83.16
18765;BME280;9511;54.242;12.448;2023-04-24T07:21:46;99909.94;;;13.26;81.36
18765;BME280;9511;54.242;12.448;2023-04-24T07:24:14;99912.53;;;13.11;80.11
18765;BME280;9511;54.242;12.448;2023-04-24T07:26:41;99901.03;;;13.04;78.85
18765;BME280;9511;54.242;12.448;2023-04-24T07:29:09;99909.00;;;13.09;78.39
18765;BME280;9511;54.242;12.448;2023-04-24T07:31:36;99904.56;;;13.06;76.76
18765;BME280;9511;54.242;12.448;2023-04-24T07:34:03;99898.38;;;13.15;76.19
18765;BME280;9511;54.242;12.448;2023-04-24T07:36:31;99909.00;;;13.12;75.93
18765;BME280;9511;54.242;12.448;2023-04-24T07:39:00;99906.38;;;13.21;75.49
18765;BME280;9511;54.242;12.448;2023-04-24T07:41:27;99903.72;;;13.35;74.39
18765;BME280;9511;54.242;12.448;2023-04-24T07:43:54;99911.69;;;13.35;74.30
18765;BME280;9511;54.242;12.448;2023-04-24T07:46:22;99916.13;;;13.22;74.05
18765;BME280;9511;54.242;12.448;2023-04-24T07:48:50;99916.97;;;13.13;73.41
18765;BME280;9511;54.242;12.448;2023-04-24T07:51:18;99908.16;;;13.34;72.62
18765;BME280;9511;54.242;12.448;2023-04-24T07:53:46;99911.69;;;13.53;73.03
18765;BME280;9511;54.242;12.448;2023-04-24T07:56:14;99910.78;;;13.80;72.62
18765;BME280;9511;54.242;12.448;2023-04-24T07:58:43;99909.81;;;14.12;71.13
18765;BME280;9511;54.242;12.448;2023-04-24T08:01:10;99915.97;;;14.29;70.04
18765;BME280;9511;54.242;12.448;2023-04-24T08:03:37;99910.69;;;14.14;68.51
18765;BME280;9511;54.242;12.448;2023-04-24T08:06:05;99914.25;;;14.13;68.61
18765;BME280;9511;54.242;12.448;2023-04-24T08:08:33;99923.00;;;14.45;69.11
18765;BME280;9511;54.242;12.448;2023-04-24T08:11:00;99923.97;;;14.24;66.52
18765;BME280;9511;54.242;12.448;2023-04-24T08:13:29;99919.59;;;13.93;66.82
18765;BME280;9511;54.242;12.448;2023-04-24T08:15:56;99921.34;;;14.07;66.68
18765;BME280;9511;54.242;12.448;2023-04-24T08:18:24;99916.03;;;14.17;65.58
18765;BME280;9511;54.242;12.448;2023-04-24T08:20:52;99910.63;;;14.40;66.40
18765;BME280;9511;54.242;12.448;2023-04-24T08:23:19;99922.78;;;14.94;66.72
18765;BME280;9511;54.242;12.448;2023-04-24T08:25:46;99924.75;;;14.55;64.41
18765;BME280;9511;54.242;12.448;2023-04-24T08:28:14;99929.13;;;14.67;64.95
18765;BME280;9511;54.242;12.448;2023-04-24T08:30:47;99931.88;;;14.38;63.78
18765;BME280;9511;54.242;12.448;2023-04-24T08:33:14;99925.72;;;14.30;64.76
18765;BME280;9511;54.242;12.448;2023-04-24T08:35:42;99924.88;;;14.17;64.30
18765;BME280;9511;54.242;12.448;2023-04-24T08:38:09;99931.88;;;14.41;64.71
18765;BME280;9511;54.242;12.448;2023-04-24T08:40:37;99924.84;;;14.34;64.18
18765;BME280;9511;54.242;12.448;2023-04-24T08:43:05;99927.50;;;14.34;64.89
18765;BME280;9511;54.242;12.448;2023-04-24T08:45:33;99923.78;;;14.73;65.40
18765;BME280;9511;54.242;12.448;2023-04-24T08:48:04;99915.59;;;15.05;64.31
18765;BME280;9511;54.242;12.448;2023-04-24T08:50:31;99910.28;;;15.08;62.92
18765;BME280;9511;54.242;12.448;2023-04-24T08:53:01;99912.00;;;15.16;62.53
18765;BME280;9511;54.242;12.448;2023-04-24T08:55:29;99902.84;;;15.47;62.28
18765;BME280;9511;54.242;12.448;2023-04-24T08:57:57;99899.19;;;15.63;62.25
18765;BME280;9511;54.242;12.448;2023-04-24T09:00:26;99897.22;;;15.82;61.51
18765;BME280;9511;54.242;12.448;2023-04-24T09:02:55;99905.41;;;15.62;59.94
18765;BME280;9511;54.242;12.448;2023-04-24T09:05:24;99905.53;;;15.49;60.74
18765;BME280;9511;54.242;12.448;2023-04-24T09:07:54;99910.69;;;15.69;60.25
18765;BME280;9511;54.242;12.448;2023-04-24T09:10:24;99915.00;;;15.82;60.30
18765;BME280;9511;54.242;12.448;2023-04-24T09:12:52;99899.75;;;15.96;58.84
18765;BME280;9511;54.242;12.448;2023-04-24T09:15:19;99909.72;;;15.79;58.70
18765;BME280;9511;54.242;12.448;2023-04-24T09:17:47;99907.53;;;16.17;57.90
18765;BME280;9511;54.242;12.448;2023-04-24T09:20:15;99919.91;;;16.22;58.04
18765;BME280;9511;54.242;12.448;2023-04-24T09:22:45;99904.84;;;16.16;57.98
18765;BME280;9511;54.242;12.448;2023-04-24T09:25:12;99915.75;;;15.96;55.94
18765;BME280;9511;54.242;12.448;2023-04-24T09:27:44;99900.31;;;16.23;56.78
18765;BME280;9511;54.242;12.448;2023-04-24T09:30:12;99915.66;;;16.05;55.55
18765;BME280;9511;54.242;12.448;2023-04-24T09:32:40;99902.50;;;15.90;56.60
18765;BME280;9511;54.242;12.448;2023-04-24T09:35:10;99896.22;;;15.92;55.50
18765;BME280;9511;54.242;12.448;2023-04-24T09:37:40;99896.22;;;15.92;55.61
18765;BME280;9511;54.242;12.448;2023-04-24T09:40:14;99889.09;;;15.93;56.58
18765;BME280;9511;54.242;12.448;2023-04-24T09:42:45;99898.13;;;15.83;55.21
18765;BME280;9511;54.242;12.448;2023-04-24T09:45:13;99895.28;;;15.98;56.32
18765;BME280;9511;54.242;12.448;2023-04-24T09:47:41;99905.50;;;16.38;55.26
18765;BME280;9511;54.242;12.448;2023-04-24T09:50:16;99891.47;;;16.20;54.95
18765;BME280;9511;54.242;12.448;2023-04-24T09:52:44;99892.94;;;16.46;55.36
18765;BME280;9511;54.242;12.448;2023-04-24T09:55:19;99891.31;;;15.45;55.01
18765;BME280;9511;54.242;12.448;2023-04-24T09:57:51;99910.78;;;15.56;56.04
18765;BME280;9511;54.242;12.448;2023-04-24T10:00:22;99910.56;;;15.81;56.33
18765;BME280;9511;54.242;12.448;2023-04-24T10:02:50;99902.75;;;15.62;56.78
18765;BME280;9511;54.242;12.448;2023-04-24T10:05:19;99903.50;;;15.77;56.37
18765;BME280;9511;54.242;12.448;2023-04-24T10:07:50;99921.13;;;15.95;55.64
18765;BME280;9511;54.242;12.448;2023-04-24T10:10:18;99905.72;;;16.19;55.43
18765;BME280;9511;54.242;12.448;2023-04-24T10:12:46;99908.78;;;15.81;55.87
18765;BME280;9511;54.242;12.448;2023-04-24T10:15:14;99909.22;;;15.28;57.16
18765;BME280;9511;54.242;12.448;2023-04-24T10:17:47;99909.09;;;15.41;58.06
18765;BME280;9511;54.242;12.448;2023-04-24T10:20:19;99911.50;;;15.77;57.72
18765;BME280;9511;54.242;12.448;2023-04-24T10:22:48;99921.22;;;15.84;57.38
18765;BME280;9511;54.242;12.448;2023-04-24T10:25:20;99929.53;;;16.36;58.01
18765;BME280;9511;54.242;12.448;2023-04-24T10:27:49;99922.88;;;15.94;56.46
18765;BME280;9511;54.242;12.448;2023-04-24T10:30:17;99913.91;;;16.00;58.24
18765;BME280;9511;54.242;12.448;2023-04-24T10:32:45;99918.19;;;16.17;57.46
18765;BME280;9511;54.242;12.448;2023-04-24T10:35:14;99918.44;;;15.96;57.31
18765;BME280;9511;54.242;12.448;2023-04-24T10:37:44;99910.75;;;16.44;58.03
18765;BME280;9511;54.242;12.448;2023-04-24T10:40:17;99908.16;;;17.06;57.18
18765;BME280;9511;54.242;12.448;2023-04-24T10:42:48;99918.06;;;17.55;56.93
18765;BME280;9511;54.242;12.448;2023-04-24T10:45:19;99905.19;;;17.80;56.32
18765;BME280;9511;54.242;12.448;2023-04-24T10:47:52;99905.50;;;18.11;55.28
18765;BME280;9511;54.242;12.448;2023-04-24T10:50:19;99913.47;;;17.63;55.37
18765;BME280;9511;54.242;12.448;2023-04-24T10:52:47;99914.78;;;16.79;55.71
18765;BME280;9511;54.242;12.448;2023-04-24T10:55:17;99912.19;;;17.34;56.42
18765;BME280;9511;54.242;12.448;2023-04-24T10:58:05;99909.47;;;17.90;56.44
18765;BME280;9511;54.242;12.448;2023-04-24T11:00:32;99916.47;;;17.43;56.19
18765;BME280;9511;54.242;12.448;2023-04-24T11:03:04;99909.06;;;17.62;56.02
18765;BME280;9511;54.242;12.448;2023-04-24T11:05:52;99900.97;;;18.14;56.28
18765;BME280;9511;54.242;12.448;2023-04-24T11:08:25;99895.88;;;18.02;54.94
18765;BME280;9511;54.242;12.448;2023-04-24T11:11:01;99896.97;;;18.37;54.95
18765;BME280;9511;54.242;12.448;2023-04-24T11:14:03;99896.78;;;17.50;54.26
18765;BME280;9511;54.242;12.448;2023-04-24T11:16:34;99896.88;;;18.40;54.53
18765;BME280;9511;54.242;12.448;2023-04-24T11:19:04;99908.66;;;18.74;53.50
18765;BME280;9511;54.242;12.448;2023-04-24T11:21:32;99903.44;;;18.68;53.11
18765;BME280;9511;54.242;12.448;2023-04-24T11:24:25;99903.31;;;17.85;55.28
18765;BME280;9511;54.242;12.448;2023-04-24T11:26:54;99901.25;;;17.48;56.08
18765;BME280;9511;54.242;12.448;2023-04-24T11:29:38;99894.81;;;17.06;57.05
18765;BME280;9511;54.242;12.448;2023-04-24T11:32:24;99897.16;;;16.62;57.67
18765;BME280;9511;54.242;12.448;2023-04-24T11:34:53;99917.53;;;15.96;58.46
18765;BME280;9511;54.242;12.448;2023-04-24T11:37:22;99902.72;;;15.59;59.43
18765;BME280;9511;54.242;12.448;2023-04-24T11:39:53;99911.78;;;15.43;60.00
18765;BME280;9511;54.242;12.448;2023-04-24T11:42:21;99905.31;;;15.73;60.65
18765;BME280;9511;54.242;12.448;2023-04-24T11:44:52;99914.88;;;15.94;61.21
18765;BME280;9511;54.242;12.448;2023-04-24T11:47:19;99907.44;;;16.25;60.64
18765;BME280;9511;54.242;12.448;2023-04-24T11:49:50;99900.72;;;16.63;59.78
18765;BME280;9511;54.242;12.448;2023-04-24T11:52:17;99904.75;;;16.96;58.65
18765;BME280;9511;54.242;12.448;2023-04-24T11:54:48;99897.94;;;16.73;58.60
18765;BME280;9511;54.242;12.448;2023-04-24T11:57:18;99895.97;;;16.88;57.86
18765;BME280;9511;54.242;12.448;2023-04-24T11:59:45;99894.75;;;17.10;57.54
18765;BME280;9511;54.242;12.448;2023-04-24T12:02:22;99889.44;;;16.41;58.96
18765;BME280;9511;54.242;12.448;2023-04-24T12:04:50;99884.84;;;16.54;59.89
18765;BME280;9511;54.242;12.448;2023-04-24T12:07:17;99893.22;;;16.91;59.12
18765;BME280;9511;54.242;12.448;2023-04-24T12:09:46;99889.28;;;16.53;58.52
18765;BME280;9511;54.242;12.448;2023-04-24T12:12:15;99889.25;;;16.55;58.82
18765;BME280;9511;54.242;12.448;2023-04-24T12:14:50;99884.59;;;16.75;59.19
18765;BME280;9511;54.242;12.448;2023-04-24T12:17:17;99885.28;;;16.88;59.01
18765;BME280;9511;54.242;12.448;2023-04-24T12:19:46;99876.00;;;17.12;58.21
18765;BME280;9511;54.242;12.448;2023-04-24T12:22:14;99866.81;;;17.81;56.70
18765;BME280;9511;54.242;12.448;2023-04-24T12:24:56;99870.38;;;17.81;55.54
18765;BME280;9511;54.242;12.448;2023-04-24T12:27:24;99871.53;;;18.14;55.16
18765;BME280;9511;54.242;12.448;2023-04-24T12:29:52;99869.88;;;17.58;55.09
18765;BME280;9511;54.242;12.448;2023-04-24T12:32:20;99881.94;;;17.31;55.79
18765;BME280;9511;54.242;12.448;2023-04-24T12:34:49;99873.44;;;17.06;55.91
18765;BME280;9511;54.242;12.448;2023-04-24T12:37:16;99872.06;;;16.77;57.27
18765;BME280;9511;54.242;12.448;2023-04-24T12:39:58;99862.44;;;16.62;57.21
18765;BME280;9511;54.242;12.448;2023-04-24T12:42:26;99865.63;;;16.92;57.86
18765;BME280;9511;54.242;12.448;2023-04-24T12:44:56;99860.72;;;17.21;57.77
18765;BME280;9511;54.242;12.448;2023-04-24T12:47:26;99856.72;;;16.93;57.71
18765;BME280;9511;54.242;12.448;2023-04-24T12:49:55;99865.69;;;16.86;58.82
18765;BME280;9511;54.242;12.448;2023-04-24T12:52:23;99862.50;;;16.59;58.80
18765;BME280;9511;54.242;12.448;2023-04-24T12:54:52;99862.59;;;16.53;59.16
18765;BME280;9511;54.242;12.448;2023-04-24T12:57:20;99860.19;;;16.32;60.06
18765;BME280;9511;54.242;12.448;2023-04-24T12:59:47;99859.09;;;16.48;60.05
18765;BME280;9511;54.242;12.448;2023-04-24T13:02:15;99854.59;;;16.50;60.17
18765;BME280;9511;54.242;12.448;2023-04-24T13:04:44;99851.03;;;16.53;59.15
18765;BME280;9511;54.242;12.448;2023-04-24T13:07:14;99862.78;;;16.38;59.12
18765;BME280;9511;54.242;12.448;2023-04-24T13:09:42;99851.25;;;16.34;60.48
18765;BME280;9511;54.242;12.448;2023-04-24T13:12:11;99857.53;;;16.32;60.48
18765;BME280;9511;54.242;12.448;2023-04-24T13:14:38;99863.84;;;16.25;60.78
18765;BME280;9511;54.242;12.448;2023-04-24T13:17:06;99865.88;;;16.03;61.18
18765;BME280;9511;54.242;12.448;2023-04-24T13:19:35;99858.97;;;15.85;61.20
18765;BME280;9511;54.242;12.448;2023-04-24T13:22:03;99860.06;;;15.59;62.20
18765;BME280;9511;54.242;12.448;2023-04-24T13:24:33;99859.28;;;15.48;62.90
18765;BME280;9511;54.242;12.448;2023-04-24T13:27:00;99871.13;;;15.17;63.93
18765;BME280;9511;54.242;12.448;2023-04-24T13:29:28;99878.31;;;15.05;64.93
18765;BME280;9511;54.242;12.448;2023-04-24T13:31:55;99883.94;;;14.56;64.90
18765;BME280;9511;54.242;12.448;2023-04-24T13:34:23;99890.28;;;14.23;65.80
18765;BME280;9511;54.242;12.448;2023-04-24T13:36:53;99887.63;;;14.16;66.23
18765;BME280;9511;54.242;12.448;2023-04-24T13:39:21;99889.44;;;14.17;66.83
18765;BME280;9511;54.242;12.448;2023-04-24T13:41:50;99891.25;;;13.87;68.26
18765;BME280;9511;54.242;12.448;2023-04-24T13:44:18;99892.16;;;13.95;69.61
18765;BME280;9511;54.242;12.448;2023-04-24T13:46:48;99898.38;;;13.80;70.71
18765;BME280;9511;54.242;12.448;2023-04-24T13:49:16;99897.53;;;13.40;72.38
18765;BME280;9511;54.242;12.448;2023-04-24T13:51:43;99896.63;;;13.35;72.20
18765;BME280;9511;54.242;12.448;2023-04-24T13:54:11;99894.88;;;13.28;73.30
18765;BME280;9511;54.242;12.448;2023-04-24T13:56:39;99887.78;;;13.30;72.24
18765;BME280;9511;54.242;12.448;2023-04-24T13:59:08;99882.50;;;13.25;71.59
18765;BME280;9511;54.242;12.448;2023-04-24T14:01:36;99872.72;;;13.24;71.12
18765;BME280;9511;54.242;12.448;2023-04-24T14:04:03;99864.78;;;13.32;70.53
18765;BME280;9511;54.242;12.448;2023-04-24T14:06:30;99876.22;;;13.19;70.49
18765;BME280;9511;54.242;12.448;2023-04-24T14:08:58;99882.44;;;13.15;70.36
18765;BME280;9511;54.242;12.448;2023-04-24T14:11:26;99881.53;;;13.07;70.19
18765;BME280;9511;54.242;12.448;2023-04-24T14:13:54;99878.91;;;13.10;70.55
18765;BME280;9511;54.242;12.448;2023-04-24T14:16:23;99871.81;;;12.96;70.93
18765;BME280;9511;54.242;12.448;2023-04-24T14:18:50;99879.75;;;13.07;70.99
18765;BME280;9511;54.242;12.448;2023-04-24T14:21:17;99865.59;;;13.07;71.09
18765;BME280;9511;54.242;12.448;2023-04-24T14:23:45;99863.88;;;13.28;70.74
18765;BME280;9511;54.242;12.448;2023-04-24T14:26:12;99864.78;;;13.37;69.87
18765;BME280;9511;54.242;12.448;2023-04-24T14:28:39;99860.31;;;13.55;69.79
18765;BME280;9511;54.242;12.448;2023-04-24T14:31:07;99857.59;;;13.80;69.61
18765;BME280;9511;54.242;12.448;2023-04-24T14:33:36;99861.94;;;14.10;69.58
18765;BME280;9511;54.242;12.448;2023-04-24T14:36:03;99851.19;;;14.47;68.10
18765;BME280;9511;54.242;12.448;2023-04-24T14:38:31;99839.44;;;15.84;66.72
18765;BME280;9511;54.242;12.448;2023-04-24T14:40:59;99848.34;;;16.51;63.08
18765;BME280;9511;54.242;12.448;2023-04-24T14:43:27;99841.50;;;16.32;62.26
18765;BME280;9511;54.242;12.448;2023-04-24T14:45:54;99836.47;;;17.31;60.40
18765;BME280;9511;54.242;12.448;2023-04-24T14:48:21;99840.13;;;18.22;58.88
18765;BME280;9511;54.242;12.448;2023-04-24T14:50:50;99835.34;;;18.38;56.33
18765;BME280;9511;54.242;12.448;2023-04-24T14:53:17;99837.25;;;18.31;55.20
18765;BME280;9511;54.242;12.448;2023-04-24T14:55:44;99830.63;;;18.06;55.56
18765;BME280;9511;54.242;12.448;2023-04-24T14:58:12;99828.94;;;18.86;55.39
18765;BME280;9511;54.242;12.448;2023-04-24T15:00:39;99833.63;;;17.91;53.32
18765;BME280;9511;54.242;12.448;2023-04-24T15:03:06;99827.59;;;18.24;54.88
18765;BME280;9511;54.242;12.448;2023-04-24T15:05:34;99841.16;;;18.57;54.04
18765;BME280;9511;54.242;12.448;2023-04-24T15:08:02;99829.44;;;18.21;52.32
18765;BME280;9511;54.242;12.448;2023-04-24T15:10:30;99820.94;;;19.21;51.98
18765;BME280;9511;54.242;12.448;2023-04-24T15:12:57;99819.34;;;17.92;52.19
18765;BME280;9511;54.242;12.448;2023-04-24T15:15:25;99816.56;;;19.17;51.39
18765;BME280;9511;54.242;12.448;2023-04-24T15:17:52;99826.63;;;17.85;51.75
18765;BME280;9511;54.242;12.448;2023-04-24T15:20:19;99822.06;;;17.90;52.83
18765;BME280;9511;54.242;12.448;2023-04-24T15:22:47;99829.47;;;17.76;53.99
18765;BME280;9511;54.242;12.448;2023-04-24T15:25:16;99824.22;;;17.20;53.83
18765;BME280;9511;54.242;12.448;2023-04-24T15:27:44;99830.47;;;16.59;56.62
18765;BME280;9511;54.242;12.448;2023-04-24T15:30:13;99818.78;;;15.99;57.56
18765;BME280;9511;54.242;12.448;2023-04-24T15:32:40;99820.03;;;15.72;58.90
18765;BME280;9511;54.242;12.448;2023-04-24T15:35:08;99833.59;;;15.44;57.70
18765;BME280;9511;54.242;12.448;2023-04-24T15:37:36;99833.00;;;15.10;58.33
18765;BME280;9511;54.242;12.448;2023-04-24T15:40:04;99826.91;;;14.97;59.25
18765;BME280;9511;54.242;12.448;2023-04-24T15:42:34;99825.16;;;14.93;59.87
18765;BME280;9511;54.242;12.448;2023-04-24T15:45:02;99829.59;;;14.93;60.33
18765;BME280;9511;54.242;12.448;2023-04-24T15:47:29;99833.19;;;14.84;60.69
18765;BME280;9511;54.242;12.448;2023-04-24T15:49:57;99835.97;;;14.69;61.07
18765;BME280;9511;54.242;12.448;2023-04-24T15:52:24;99839.19;;;15.12;61.28
18765;BME280;9511;54.242;12.448;2023-04-24T15:54:52;99839.75;;;15.49;60.59
18765;BME280;9511;54.242;12.448;2023-04-24T15:57:19;99842.56;;;16.85;58.03
18765;BME280;9511;54.242;12.448;2023-04-24T15:59:48;99846.84;;;17.49;55.66
18765;BME280;9511;54.242;12.448;2023-04-24T16:02:15;99842.88;;;17.71;51.34
18765;BME280;9511;54.242;12.448;2023-04-24T16:04:44;99830.06;;;17.92;50.35
18765;BME280;9511;54.242;12.448;2023-04-24T16:07:12;99829.28;;;18.28;49.36
18765;BME280;9511;54.242;12.448;2023-04-24T16:09:40;99810.69;;;19.01;48.46
18765;BME280;9511;54.242;12.448;2023-04-24T16:12:07;99819.06;;;19.59;46.50
18765;BME280;9511;54.242;12.448;2023-04-24T16:14:35;99818.59;;;19.76;45.33